createdAt,value
2022-09-14T00:00:28.729Z,73.21
2022-09-14T00:03:25.233Z,73.33
2022-09-14T00:06:16.214Z,72.98
2022-09-14T00:08:50.739Z,73.36
2022-09-14T00:11:49.539Z,72.89
2022-09-14T00:14:53.699Z,73.02
2022-09-14T00:20:50.356Z,72.98
2022-09-14T00:23:39.778Z,73.28
2022-09-14T00:26:29.803Z,73.19
2022-09-14T00:29:17.202Z,73.44
2022-09-14T00:32:08.900Z,73.42
2022-09-14T00:34:59.902Z,73.58
2022-09-14T00:38:01.751Z,73.37
2022-09-14T00:41:14.524Z,73.56
2022-09-14T00:44:05.051Z,73.52
2022-09-14T00:46:52.335Z,73.42
2022-09-14T00:49:42.725Z,73.35
2022-09-14T00:52:30.373Z,73.37
2022-09-14T00:55:21.748Z,73.29
2022-09-14T00:58:08.514Z,73.64
2022-09-14T01:00:55.221Z,73.74
2022-09-14T01:03:42.030Z,73.53
2022-09-14T01:06:36.787Z,73.30
2022-09-14T01:09:32.210Z,73.42
2022-09-14T01:12:25.773Z,73.49
2022-09-14T01:15:17.797Z,73.35
2022-09-14T01:18:19.174Z,73.58
2022-09-14T01:21:10.270Z,73.62
2022-09-14T01:24:08.382Z,73.72
2022-09-14T01:27:01.330Z,73.39
2022-09-14T01:29:48.050Z,73.64
2022-09-14T01:33:07.375Z,73.84
2022-09-14T01:35:59.734Z,73.94
2022-09-14T01:38:58.044Z,74.01
2022-09-14T01:41:47.243Z,73.94
2022-09-14T01:44:37.671Z,73.73
2022-09-14T01:47:29.228Z,73.76
2022-09-14T01:50:17.788Z,73.82
2022-09-14T01:53:06.163Z,73.78
2022-09-14T01:56:00.371Z,73.81
2022-09-14T01:58:57.472Z,73.83
2022-09-14T02:01:50.148Z,73.91
2022-09-14T02:04:46.378Z,73.79
2022-09-14T02:07:35.462Z,73.95
2022-09-14T02:10:24.385Z,74.03
2022-09-14T02:13:11.080Z,73.96
2022-09-14T02:15:57.919Z,73.94
2022-09-14T02:18:44.853Z,74.06
2022-09-14T02:21:32.337Z,73.92
2022-09-14T02:24:19.173Z,74.03
2022-09-14T02:27:06.476Z,74.08
2022-09-14T02:29:53.268Z,74.04
2022-09-14T02:32:46.761Z,73.89
2022-09-14T02:35:52.367Z,74.06
2022-09-14T02:38:49.144Z,74.35
2022-09-14T02:41:39.822Z,73.95
2022-09-14T02:44:38.062Z,74.46
2022-09-14T02:47:33.198Z,74.25
2022-09-14T02:50:40.920Z,74.13
2022-09-14T02:53:35.601Z,74.13
2022-09-14T02:56:22.300Z,74.10
2022-09-14T02:59:08.978Z,74.35
2022-09-14T03:01:56.271Z,74.41
2022-09-14T03:04:42.976Z,74.22
2022-09-14T03:07:29.767Z,74.22
2022-09-14T03:10:16.597Z,74.28
2022-09-14T03:13:03.312Z,74.49
2022-09-14T03:15:50.268Z,74.23
2022-09-14T03:18:37.179Z,74.35
2022-09-14T03:21:24.042Z,74.31
2022-09-14T03:24:10.882Z,74.51
2022-09-14T03:26:59.899Z,74.31
2022-09-14T03:29:46.601Z,74.42
2022-09-14T03:32:33.510Z,74.29
2022-09-14T03:35:20.269Z,74.52
2022-09-14T03:38:07.006Z,74.38
2022-09-14T03:40:53.932Z,74.47
2022-09-14T03:43:44.236Z,74.59
2022-09-14T03:46:31.050Z,74.98
2022-09-14T03:49:17.894Z,74.56
2022-09-14T03:52:04.730Z,74.48
2022-09-14T03:54:51.435Z,74.42
2022-09-14T03:57:38.342Z,74.64
2022-09-14T04:00:25.037Z,74.85
2022-09-14T04:03:11.970Z,74.66
2022-09-14T04:05:58.720Z,74.63
2022-09-14T04:08:45.867Z,74.67
2022-09-14T04:11:33.926Z,74.74
2022-09-14T04:14:20.837Z,74.76
2022-09-14T04:17:07.499Z,74.69
2022-09-14T04:19:54.234Z,74.83
2022-09-14T04:22:41.032Z,74.87
2022-09-14T04:25:27.791Z,74.82
2022-09-14T04:28:20.392Z,74.81
2022-09-14T04:31:08.582Z,75.01
2022-09-14T04:33:56.281Z,74.91
2022-09-14T04:36:43.212Z,75.09
2022-09-14T04:39:30.272Z,74.85
2022-09-14T04:42:17.053Z,74.95
2022-09-14T04:45:04.918Z,74.96
2022-09-14T04:47:51.554Z,75.01
2022-09-14T04:50:38.186Z,74.99
2022-09-14T04:53:24.894Z,74.99
2022-09-14T04:56:12.042Z,75.34
2022-09-14T04:58:59.336Z,75.29
2022-09-14T05:01:47.675Z,75.36
2022-09-14T05:04:34.939Z,75.16
2022-09-14T05:07:21.736Z,75.06
2022-09-14T05:10:08.447Z,75.39
2022-09-14T05:12:55.205Z,75.14
2022-09-14T05:15:42.688Z,75.14
2022-09-14T05:18:29.486Z,75.23
2022-09-14T05:21:17.649Z,75.40
2022-09-14T05:24:13.663Z,75.27
2022-09-14T05:27:02.227Z,75.29
2022-09-14T05:29:49.081Z,75.28
2022-09-14T05:32:35.801Z,75.20
2022-09-14T05:35:24.781Z,75.11
2022-09-14T05:38:14.606Z,75.51
2022-09-14T05:41:01.498Z,75.54
2022-09-14T05:43:48.419Z,75.44
2022-09-14T05:46:37.504Z,75.58
2022-09-14T05:49:27.117Z,75.47
2022-09-14T05:52:13.801Z,75.55
2022-09-14T05:55:00.495Z,75.88
2022-09-14T05:57:52.923Z,75.89
2022-09-14T06:00:39.574Z,76.18
2022-09-14T06:03:29.302Z,76.22
2022-09-14T06:06:17.508Z,76.28
2022-09-14T06:09:04.220Z,76.01
2022-09-14T06:11:51.027Z,75.94
2022-09-14T06:14:37.779Z,76.01
2022-09-14T06:17:29.255Z,76.05
2022-09-14T06:20:15.934Z,76.07
2022-09-14T06:23:02.615Z,76.06
2022-09-14T06:25:49.265Z,76.09
2022-09-14T06:28:35.969Z,76.02
2022-09-14T06:31:25.690Z,76.16
2022-09-14T06:34:12.527Z,76.24
2022-09-14T06:36:59.286Z,76.41
2022-09-14T06:39:46.155Z,76.33
2022-09-14T06:42:32.857Z,76.25
2022-09-14T06:45:19.501Z,76.45
2022-09-14T06:54:25.862Z,76.19
2022-09-14T06:57:12.552Z,76.01
2022-09-14T06:59:59.192Z,76.07
2022-09-14T07:02:47.213Z,76.06
2022-09-14T07:05:33.916Z,76.40
2022-09-14T07:08:20.613Z,76.12
2022-09-14T07:11:08.177Z,76.04
2022-09-14T07:13:57.202Z,75.98
2022-09-14T07:16:43.997Z,75.92
2022-09-14T07:19:30.688Z,75.79
2022-09-14T07:22:17.527Z,75.72
2022-09-14T07:25:04.324Z,75.67
2022-09-14T07:27:54.311Z,75.90
2022-09-14T07:30:43.458Z,75.91
2022-09-14T07:33:32.214Z,75.91
2022-09-14T07:36:18.967Z,75.77
2022-09-14T07:39:06.277Z,75.78
2022-09-14T07:41:53.664Z,75.98
2022-09-14T07:44:44.556Z,76.29
2022-09-14T07:47:36.567Z,76.28
2022-09-14T07:50:30.865Z,76.18
2022-09-14T07:53:17.601Z,76.20
2022-09-14T07:56:04.684Z,76.16
2022-09-14T07:59:17.167Z,75.93
2022-09-14T08:02:16.101Z,75.83
2022-09-14T08:05:02.829Z,75.95
2022-09-14T08:07:53.467Z,76.17
2022-09-14T08:10:41.404Z,76.78
2022-09-14T08:13:28.067Z,76.69
2022-09-14T08:16:17.686Z,76.67
2022-09-14T08:19:07.731Z,77.22
2022-09-14T08:21:54.444Z,76.66
2022-09-14T08:24:41.127Z,77.07
2022-09-14T08:27:27.848Z,77.56
2022-09-14T08:30:14.911Z,77.83
2022-09-14T08:33:02.061Z,77.77
2022-09-14T08:36:03.926Z,77.56
2022-09-14T08:38:50.632Z,77.85
2022-09-14T08:41:43.367Z,78.13
2022-09-14T08:44:38.719Z,78.62
2022-09-14T08:47:38.809Z,78.70
2022-09-14T08:50:25.516Z,78.50
2022-09-14T08:53:12.167Z,78.99
2022-09-14T08:56:19.707Z,79.10
2022-09-14T08:59:18.059Z,79.49
2022-09-14T09:02:25.296Z,79.87
2022-09-14T09:05:35.650Z,79.73
2022-09-14T09:08:34.089Z,79.68
2022-09-14T09:11:21.272Z,80.24
2022-09-14T09:14:28.149Z,80.02
2022-09-14T09:17:16.737Z,80.24
2022-09-14T09:20:05.470Z,79.97
2022-09-14T09:23:00.315Z,80.29
2022-09-14T09:25:50.423Z,80.44
2022-09-14T09:28:47.691Z,80.46
2022-09-14T09:31:44.251Z,80.61
2022-09-14T09:34:31.160Z,80.55
2022-09-14T09:37:19.480Z,81.06
2022-09-14T09:40:16.521Z,80.65
2022-09-14T09:43:07.670Z,80.99
2022-09-14T09:46:01.136Z,81.02
2022-09-14T09:48:48.223Z,81.20
2022-09-14T09:51:35.003Z,80.87
2022-09-14T09:54:31.159Z,81.37
2022-09-14T09:57:22.078Z,81.28
2022-09-14T10:00:08.918Z,80.84
2022-09-14T10:02:55.783Z,81.34
2022-09-14T10:05:42.461Z,81.42
2022-09-14T10:08:34.185Z,81.39
2022-09-14T10:11:27.055Z,81.16
2022-09-14T10:14:21.435Z,81.41
2022-09-14T10:17:15.903Z,81.64
2022-09-14T10:20:05.592Z,81.54
2022-09-14T10:22:52.310Z,81.25
2022-09-14T10:25:39.039Z,81.25
2022-09-14T10:28:28.861Z,81.75
2022-09-14T10:31:15.911Z,81.56
2022-09-14T10:34:05.199Z,81.24
2022-09-14T10:37:15.260Z,81.90
2022-09-14T10:40:07.862Z,81.61
2022-09-14T10:43:00.552Z,81.01
2022-09-14T10:45:49.701Z,81.62
2022-09-14T10:48:43.619Z,81.70
2022-09-14T10:51:30.287Z,81.78
2022-09-14T10:54:54.947Z,81.59
2022-09-14T10:57:53.728Z,81.40
2022-09-14T11:00:43.192Z,81.07
2022-09-14T11:03:29.875Z,81.38
2022-09-14T11:06:26.229Z,81.58
2022-09-14T11:09:34.075Z,80.91
2022-09-14T11:12:23.785Z,81.31
2022-09-14T11:15:10.558Z,81.90
2022-09-14T11:18:13.218Z,82.45
2022-09-14T11:21:06.307Z,82.33
2022-09-14T11:23:56.009Z,82.18
2022-09-14T11:26:43.788Z,82.07
2022-09-14T11:29:32.049Z,81.85
2022-09-14T11:32:27.647Z,82.04
2022-09-14T11:35:14.297Z,82.12
2022-09-14T11:38:09.006Z,81.84
2022-09-14T11:41:01.127Z,80.90
2022-09-14T11:43:47.798Z,81.05
2022-09-14T11:46:35.409Z,80.82
2022-09-14T11:49:25.151Z,80.29
2022-09-14T11:52:20.847Z,80.40
2022-09-14T11:55:11.729Z,81.08
2022-09-14T11:58:01.847Z,79.94
2022-09-14T12:00:51.491Z,80.28
2022-09-14T12:03:56.932Z,80.18
2022-09-14T12:06:50.529Z,79.90
2022-09-14T12:09:39.061Z,79.10
2022-09-14T12:12:29.404Z,78.65
2022-09-14T12:15:22.990Z,78.24
2022-09-14T12:18:10.001Z,78.19
2022-09-14T12:21:09.429Z,78.16
2022-09-14T12:23:58.048Z,78.06
2022-09-14T12:26:45.146Z,78.14
2022-09-14T12:29:32.987Z,77.73
2022-09-14T12:32:27.175Z,77.51
2022-09-14T12:35:32.441Z,77.45
2022-09-14T12:38:31.573Z,77.15
2022-09-14T12:41:18.237Z,76.69
2022-09-14T12:44:15.724Z,75.80
2022-09-14T12:47:21.242Z,75.81
2022-09-14T12:50:09.810Z,75.92
2022-09-14T12:53:02.512Z,75.99
2022-09-14T12:55:54.604Z,75.49
2022-09-14T12:58:55.998Z,75.50
2022-09-14T13:02:18.233Z,75.34
2022-09-14T13:05:08.063Z,75.11
2022-09-14T13:07:54.825Z,75.14
2022-09-14T13:10:45.956Z,75.21
2022-09-14T13:13:32.776Z,75.48
2022-09-14T13:16:25.112Z,75.15
2022-09-14T13:19:21.039Z,74.36
2022-09-14T13:22:18.049Z,74.13
2022-09-14T13:25:04.926Z,73.90
2022-09-14T13:27:51.649Z,74.17
2022-09-14T13:30:39.275Z,74.08
2022-09-14T13:33:26.208Z,73.48
2022-09-14T13:36:15.551Z,73.44
2022-09-14T13:39:03.138Z,73.44
2022-09-14T13:41:49.789Z,73.13
2022-09-14T13:44:42.013Z,73.60
2022-09-14T13:47:28.821Z,73.61
2022-09-14T13:50:15.558Z,73.48
2022-09-14T13:53:03.833Z,73.71
2022-09-14T13:55:51.124Z,73.31
2022-09-14T13:58:37.794Z,72.96
2022-09-14T14:01:29.099Z,73.08
2022-09-14T14:04:25.070Z,72.81
2022-09-14T14:07:19.242Z,72.90
2022-09-14T14:10:07.176Z,72.75
2022-09-14T14:12:53.850Z,72.79
2022-09-14T14:15:41.519Z,73.27
2022-09-14T14:18:41.880Z,72.88
2022-09-14T14:21:29.870Z,72.46
2022-09-14T14:24:27.073Z,72.48
2022-09-14T14:27:26.133Z,72.57
2022-09-14T14:30:17.384Z,72.14
2022-09-14T14:33:06.625Z,72.18
2022-09-14T14:35:55.812Z,72.16
2022-09-14T14:38:45.892Z,72.28
2022-09-14T14:41:32.587Z,72.17
2022-09-14T14:44:20.352Z,71.95
2022-09-14T14:47:07.021Z,71.96
2022-09-14T14:49:53.752Z,72.21
2022-09-14T14:52:40.420Z,72.24
2022-09-14T14:55:28.239Z,72.09
2022-09-14T14:58:18.713Z,71.98
2022-09-14T15:01:05.647Z,71.89
2022-09-14T15:03:52.546Z,72.07
2022-09-14T15:06:39.322Z,72.17
2022-09-14T15:09:29.863Z,71.86
2022-09-14T15:12:16.525Z,71.43
2022-09-14T15:15:03.310Z,71.47
2022-09-14T15:17:53.165Z,71.63
2022-09-14T15:20:39.938Z,71.58
2022-09-14T15:23:26.647Z,71.59
2022-09-14T15:26:13.309Z,71.62
2022-09-14T15:29:00.868Z,71.58
2022-09-14T15:31:50.136Z,71.96
2022-09-14T15:34:36.971Z,71.83
2022-09-14T15:37:23.898Z,72.23
2022-09-14T15:40:10.599Z,72.24
2022-09-14T15:42:57.273Z,73.17
2022-09-14T15:45:44.115Z,73.28
2022-09-14T15:48:30.892Z,73.33
2022-09-14T15:51:19.738Z,73.28
2022-09-14T15:54:06.494Z,73.42
2022-09-14T15:56:54.969Z,73.40
2022-09-14T15:59:41.624Z,73.57
2022-09-14T16:02:30.477Z,73.42
2022-09-14T16:05:25.142Z,73.87
2022-09-14T16:08:11.811Z,73.58
2022-09-14T16:11:00.241Z,73.38
2022-09-14T16:13:47.207Z,73.11
2022-09-14T16:16:34.640Z,73.18
2022-09-14T16:19:21.662Z,73.29
2022-09-14T16:22:08.300Z,73.20
2022-09-14T16:24:55.055Z,73.22
2022-09-14T16:27:42.090Z,73.32
2022-09-14T16:30:29.402Z,73.52
2022-09-14T16:33:19.222Z,73.67
2022-09-14T16:36:10.068Z,73.80
2022-09-14T16:38:57.849Z,73.90
2022-09-14T16:41:44.987Z,73.92
2022-09-14T16:44:31.903Z,73.83
2022-09-14T16:47:18.590Z,73.69
2022-09-14T16:50:05.459Z,73.60
2022-09-14T16:52:55.102Z,73.63
2022-09-14T16:55:41.853Z,74.00
2022-09-14T16:58:28.887Z,74.06
2022-09-14T17:01:28.770Z,74.00
2022-09-14T17:04:28.064Z,73.83
2022-09-14T17:07:17.621Z,73.91
2022-09-14T17:10:04.629Z,74.01
2022-09-14T17:12:51.682Z,74.15
2022-09-14T17:15:41.629Z,74.05
2022-09-14T17:18:29.154Z,74.28
2022-09-14T17:21:22.775Z,74.21
2022-09-14T17:27:13.292Z,74.31
2022-09-14T17:30:02.586Z,74.48
2022-09-14T17:32:53.058Z,74.40
2022-09-14T17:35:46.058Z,74.60
2022-09-14T17:38:33.932Z,74.49
2022-09-14T17:41:24.356Z,74.53
2022-09-14T17:44:12.377Z,74.49
2022-09-14T17:47:02.146Z,74.64
2022-09-14T17:49:51.888Z,74.49
2022-09-14T17:52:38.544Z,74.50
2022-09-14T17:55:25.524Z,74.76
2022-09-14T17:58:14.435Z,74.79
2022-09-14T18:01:09.747Z,74.57
2022-09-14T18:04:07.500Z,74.54
2022-09-14T18:06:55.508Z,74.45
2022-09-14T18:09:42.600Z,74.75
2022-09-14T18:12:32.603Z,74.83
2022-09-14T18:15:21.003Z,74.64
2022-09-14T18:18:12.029Z,74.58
2022-09-14T18:21:02.560Z,74.53
2022-09-14T18:23:50.078Z,74.65
2022-09-14T18:26:49.891Z,74.71
2022-09-14T18:29:41.225Z,74.69
2022-09-14T18:32:27.954Z,75.09
2022-09-14T18:35:15.305Z,74.78
2022-09-14T18:38:09.107Z,75.04
2022-09-14T18:41:05.272Z,75.31
2022-09-14T18:43:53.626Z,75.17
2022-09-14T18:46:40.640Z,75.32
2022-09-14T18:49:29.907Z,75.03
2022-09-14T18:52:21.390Z,75.29
2022-09-14T18:58:32.965Z,75.18
2022-09-14T19:01:22.609Z,75.26
2022-09-14T19:04:17.009Z,75.45
2022-09-14T19:07:11.195Z,75.62
2022-09-14T19:10:02.706Z,75.92
2022-09-14T19:12:54.214Z,75.69
2022-09-14T19:15:52.529Z,75.93
2022-09-14T19:22:28.239Z,75.63
2022-09-14T19:25:22.411Z,75.95
2022-09-14T19:28:21.973Z,76.02
2022-09-14T19:31:17.334Z,75.94
2022-09-14T19:34:13.902Z,76.07
2022-09-14T19:37:33.206Z,75.94
2022-09-14T19:40:20.202Z,76.11
2022-09-14T19:43:12.502Z,76.08
2022-09-14T19:46:10.298Z,76.23
2022-09-14T19:49:01.720Z,76.20
2022-09-14T19:51:49.086Z,76.60
2022-09-14T19:54:40.315Z,76.47
2022-09-14T19:57:33.923Z,76.39
2022-09-14T20:00:32.390Z,76.39
2022-09-14T20:03:22.738Z,76.88
2022-09-14T20:06:11.252Z,76.71
2022-09-14T20:09:03.237Z,76.51
2022-09-14T20:11:50.808Z,76.66
2022-09-14T20:14:37.584Z,76.63
2022-09-14T20:17:27.471Z,76.77
2022-09-14T20:20:17.408Z,76.51
2022-09-14T20:23:12.186Z,76.57
2022-09-14T20:26:02.320Z,77.03
2022-09-14T20:29:05.386Z,76.90
2022-09-14T20:32:28.847Z,76.79
2022-09-14T20:35:32.920Z,76.75
2022-09-14T20:38:49.683Z,77.12
2022-09-14T20:41:44.372Z,76.83
2022-09-14T20:44:40.676Z,77.27
2022-09-14T20:47:33.593Z,77.11
2022-09-14T20:50:20.431Z,77.07
2022-09-14T20:53:09.844Z,77.35
2022-09-14T20:56:04.378Z,77.31
2022-09-14T20:58:57.488Z,77.36
2022-09-14T21:01:56.071Z,76.93
2022-09-14T21:04:50.877Z,77.40
2022-09-14T21:07:56.001Z,77.22
2022-09-14T21:10:50.515Z,77.20
2022-09-14T21:13:37.436Z,77.36
2022-09-14T21:16:25.402Z,77.57
2022-09-14T21:19:17.309Z,77.17
2022-09-14T21:22:12.224Z,77.28
2022-09-14T21:24:59.146Z,77.30
2022-09-14T21:34:47.834Z,77.15
2022-09-14T21:43:47.522Z,77.12
2022-09-14T21:46:34.461Z,77.19
2022-09-14T21:49:24.438Z,77.35
2022-09-14T21:52:11.247Z,77.53
2022-09-14T21:54:57.956Z,77.56
2022-09-14T21:57:46.984Z,76.84
2022-09-14T22:00:33.815Z,77.57
2022-09-14T22:03:23.046Z,77.31
2022-09-14T22:06:11.751Z,77.77
2022-09-14T22:09:01.480Z,77.47
2022-09-14T22:11:48.959Z,77.78
2022-09-14T22:14:44.580Z,78.06
2022-09-14T22:17:31.870Z,77.66
2022-09-14T22:20:18.626Z,77.98
2022-09-14T22:23:05.353Z,77.87
2022-09-14T22:25:52.193Z,77.83
2022-09-14T22:28:41.390Z,77.88
2022-09-14T22:31:31.372Z,78.12
2022-09-14T22:34:18.140Z,78.22
2022-09-14T22:37:34.176Z,78.33
2022-09-14T22:40:23.371Z,78.03
2022-09-14T22:46:15.151Z,78.28
2022-09-14T22:49:01.968Z,78.22
2022-09-14T22:51:48.876Z,78.15
2022-09-14T22:54:35.671Z,77.99
2022-09-14T22:57:23.954Z,77.91
2022-09-14T23:00:11.685Z,78.08
2022-09-14T23:02:58.423Z,78.24
2022-09-14T23:05:49.541Z,78.06
2022-09-14T23:08:36.334Z,77.98
2022-09-14T23:11:39.139Z,78.34
2022-09-14T23:14:26.083Z,78.25
2022-09-14T23:17:13.079Z,78.14
2022-09-14T23:19:59.899Z,78.29
2022-09-14T23:22:46.600Z,78.15
2022-09-14T23:25:34.337Z,78.15
2022-09-14T23:28:20.997Z,78.05
2022-09-14T23:31:07.847Z,77.98
2022-09-14T23:33:55.651Z,78.08
2022-09-14T23:36:42.438Z,78.07
2022-09-14T23:39:29.260Z,77.80
2022-09-14T23:42:15.991Z,77.82
2022-09-14T23:45:05.803Z,78.01
2022-09-14T23:47:57.648Z,78.09
2022-09-14T23:50:55.805Z,77.91
2022-09-14T23:53:43.237Z,78.06
2022-09-14T23:56:29.996Z,78.09
2022-09-14T23:59:16.776Z,78.13
